NCAR-RAP Real-Time Weather Data

Output produced by METARs form (10 April 2020  05:59 UTC)
found at http://weather.rap.ucar.edu/surface/
 
KBGD 100551Z AUTO 13008KT 10SM CLR 10/00 A3013 RMK AO2 SLP188 T01000000 10183 20100 401830089 51014
KBGD 100451Z AUTO 14009KT 10SM CLR 11/01 A3012 RMK AO2 SLP184 T01110006
KBGD 100351Z AUTO 13006KT 10SM CLR 12/01 A3013 RMK AO2 SLP188 T01220006
KBGD 100251Z AUTO 12008KT 10SM CLR 14/01 A3008 RMK AO2 SLP172 T01390006 53014
KBGD 100151Z AUTO 11007KT 10SM CLR 15/01 A3006 RMK AO2 SLP162 T01500006
KBGD 100051Z AUTO 11008KT 10SM CLR 17/01 A3005 RMK AO2 SLP158 T01670011
KBGD 092351Z AUTO 10007KT 10SM CLR 18/01 A3004 RMK AO2 SLP151 T01830011 10183 20161 55002
KBGD 092251Z AUTO 10007KT 10SM CLR 18/01 A3004 RMK AO2 SLP149 T01780011
KBGD 092151Z AUTO 11007KT 10SM FEW120 17/01 A3004 RMK AO2 SLP151 T01720011
KBGD 092051Z AUTO 10011G18KT 10SM BKN120 17/02 A3005 RMK AO2 PRESFR SLP152 T01670017 58019
KBGD 091951Z AUTO 11009G16KT 10SM CLR 17/02 A3009 RMK AO2 SLP163 T01720022
KBGD 091851Z AUTO 09012G19KT 10SM CLR 17/03 A3009 RMK AO2 SLP164 T01720033
KBGD 091751Z AUTO 10009G18KT 10SM CLR 16/04 A3011 RMK AO2 SLP169 T01560039 10161 20089 58003
KBGD 091651Z AUTO 07014G21KT 10SM CLR 14/03 A3012 RMK AO2 SLP175 T01440028
KBGD 091551Z AUTO 06012KT 10SM CLR 12/02 A3012 RMK AO2 SLP176 T01220022
KBGD 091451Z AUTO 06012G19KT 10SM CLR 11/02 A3012 RMK AO2 SLP173 T01110022 51019
KBGD 091351Z AUTO 05011G17KT 10SM CLR 10/02 A3011 RMK AO2 SLP169 T01000022
KBGD 091251Z AUTO 05011KT 10SM CLR 09/03 A3009 RMK AO2 SLP161 T00940028
KBGD 091151Z AUTO 06009KT 10SM CLR 12/03 A3005 RMK AO2 SLP144 T01170028 10183 20117 51019
KBGD 091051Z AUTO 03004KT 10SM CLR 12/02 A3004 RMK AO2 SLP138 T01220017
KBGD 090951Z AUTO 03004KT 10SM CLR 13/02 A3002 RMK AO2 SLP129 T01330017
KBGD 090851Z AUTO 07005KT 10SM CLR 14/02 A2999 RMK AO2 SLP119 T01440017 55001
KBGD 090751Z AUTO 10004KT 10SM CLR 17/01 A2998 RMK AO2 SLP114 T01670011